Latest Weather Observations for Geelong Racecourse

IDV60801

Issued at 9:32 am EST Sunday 24 June 2018 (issued every 10 minutes, with the page automatically refreshed every 10 minutes)

About weather observations | Map of weather stations | Latest weather observations for VIC | Other Formats
Station Details ID: 087184 Name: GEELONG RACECOURSE Lat: -38.17 Lon: 144.38 Height: 12.9 m
Data from the previous 72 hours. | See also: Recent months at Geelong Racecourse
Date/Time
EST
Temp
°C
App
Temp
°C
Dew
Point
°C
Rel
Hum
%
Delta-T
°C
Wind Press
QNH
hPa
Press
MSL
hPa
Rain since
9am
mm
Dir  Spd
km/h
Gust
km/h
Spd
kts
Gust
kts
24/09:30am 9.9 8.1 7.0 82 1.4 W 6 9 3 5 1031.2 1031.3 0.0
24/09:00am 9.3 7.7 8.1 92 0.6 NW 6 9 3 5 1031.2 1031.3 0.0
24/08:30am 8.8 7.1 7.7 93 0.5 NW 6 7 3 4 1031.0 1031.1 0.0
24/08:00am 8.6 6.9 7.5 93 0.5 WNW 6 7 3 4 1030.8 1030.9 0.0
24/07:30am 8.2 6.4 7.1 93 0.5 WNW 6 9 3 5 1030.5 1030.6 0.0
24/07:00am 8.4 6.4 7.3 93 0.5 WNW 7 9 4 5 1030.3 1030.4 0.0
24/06:30am 8.5 6.6 7.4 93 0.5 WNW 7 9 4 5 1030.0 1030.1 0.0
24/06:00am 8.5 7.1 7.4 93 0.5 WNW 4 9 2 5 1029.8 1029.9 0.0
24/05:30am 8.6 6.9 7.5 93 0.5 WNW 6 7 3 4 1029.6 1029.7 0.0
24/05:00am 9.0 7.4 7.8 92 0.6 WNW 6 9 3 5 1029.5 1029.6 0.0
24/04:30am 9.0 6.8 7.8 92 0.6 W 9 13 5 7 1029.5 1029.6 0.0
24/04:00am 9.1 6.9 7.9 92 0.6 W 9 13 5 7 1029.4 1029.5 0.0
24/03:30am 8.5 6.6 7.4 93 0.5 WSW 7 11 4 6 1029.4 1029.5 0.0
24/03:00am 8.2 5.8 7.0 92 0.6 W 9 13 5 7 1029.6 1029.7 0.0
24/02:30am 9.0 6.8 7.8 92 0.6 W 9 11 5 6 1029.6 1029.7 0.0
24/02:00am 9.2 7.4 8.0 92 0.6 WSW 7 11 4 6 1029.5 1029.6 0.0
24/01:30am 8.9 7.2 7.7 92 0.6 WSW 6 9 3 5 1029.5 1029.6 0.0
24/01:00am 9.0 7.4 7.9 93 0.5 W 6 9 3 5 1029.5 1029.6 0.0
24/12:30am 9.1 7.4 7.4 89 0.8 W 6 11 3 6 1029.6 1029.7 0.0
24/12:00am 9.3 7.6 7.6 89 0.8 W 6 9 3 5 1029.8 1029.9 0.0
 
Date/Time
EST
Temp
°C
App
Temp
°C
Dew
Point
°C
Rel
Hum
%
Delta-T
°C
Wind Press
QNH
hPa
Press
MSL
hPa
Rain since
9am
mm
Dir  Spd
km/h
Gust
km/h
Spd
kts
Gust
kts
23/11:30pm 9.5 7.8 8.3 92 0.6 WSW 7 11 4 6 1029.8 1029.9 0.0
23/11:00pm 9.5 7.4 8.3 92 0.6 WSW 9 11 5 6 1029.8 1029.9 0.0
23/10:30pm 9.1 6.9 8.0 93 0.5 WSW 9 13 5 7 1029.5 1029.6 0.0
23/10:00pm 8.6 6.7 7.4 92 0.6 WSW 7 11 4 6 1029.4 1029.5 0.0
23/09:30pm 8.8 7.1 7.7 93 0.5 SW 6 9 3 5 1029.2 1029.3 0.0
23/09:00pm 9.3 7.2 8.1 92 0.6 W 9 11 5 6 1029.2 1029.3 0.0
23/08:30pm 8.8 6.6 7.7 93 0.5 WSW 9 11 5 6 1029.0 1029.1 0.0
23/08:00pm 9.0 7.4 7.9 93 0.5 SW 6 7 3 4 1028.6 1028.7 0.0
23/07:30pm 9.3 7.6 8.2 93 0.5 WSW 7 9 4 5 1028.6 1028.7 0.0
23/07:00pm 9.8 8.4 8.7 93 0.5 SW 6 7 3 4 1028.1 1028.2 0.0
23/06:30pm 10.9 10.1 9.8 93 0.6 WSW 4 6 2 3 1027.7 1027.8 0.0
23/06:00pm 11.3 10.6 10.2 93 0.6 W 4 6 2 3 1027.2 1027.3 0.0
23/05:30pm 11.4 10.8 10.3 93 0.6 W 4 7 2 4 1027.0 1027.0 0.0
23/05:00pm 11.6 11.0 10.5 93 0.6 WSW 4 6 2 3 1027.0 1027.0 0.0
23/04:30pm 11.8 10.7 10.7 93 0.6 SSW 7 11 4 6 1026.9 1026.9 0.0
23/04:00pm 12.2 11.2 10.9 92 0.7 SW 7 9 4 5 1026.8 1026.8 0.0
23/03:30pm 12.3 11.0 11.2 93 0.6 WSW 9 13 5 7 1026.5 1026.5 0.0
23/03:00pm 12.1 10.7 11.0 93 0.6 WSW 9 15 5 8 1026.2 1026.2 0.0
23/02:30pm 12.1 9.5 10.8 92 0.7 WSW 15 19 8 10 1025.9 1025.9 0.0
23/02:00pm 12.3 10.2 11.0 92 0.7 W 13 19 7 10 1025.7 1025.7 0.0
23/01:30pm 12.0 9.0 10.7 92 0.7 W 17 26 9 14 1025.8 1025.8 0.0
23/01:00pm 12.2 9.1 10.3 88 1.0 W 17 22 9 12 1025.9 1025.9 0.0
23/12:30pm 12.8 9.3 10.3 85 1.3 W 19 30 10 16 1025.9 1025.9 0.0
23/12:00pm 12.2 8.5 9.4 83 1.4 W 19 28 10 15 1026.1 1026.1 0.0
23/11:30am 11.4 7.2 8.1 80 1.6 W 20 32 11 17 1026.2 1026.2 0.0
23/11:00am 11.3 7.2 8.0 80 1.6 WNW 19 26 10 14 1026.4 1026.4 0.0
23/10:30am 11.3 6.9 7.6 78 1.8 WNW 20 32 11 17 1026.1 1026.1 0.0
23/10:00am 10.8 8.1 7.5 80 1.6 WNW 11 20 6 11 1026.0 1026.0 0.0
23/09:30am 10.3 8.6 7.7 84 1.2 WNW 6 11 3 6 1025.8 1025.8 0.0
23/09:00am 9.1 7.1 7.1 87 0.9 WNW 7 11 4 6 1025.8 1025.8 0.0
23/08:30am 8.6 6.2 7.2 91 0.7 WNW 9 15 5 8 1025.5 1025.5 0.0
23/08:00am 8.3 5.5 6.8 90 0.7 NW 11 15 6 8 1025.1 1025.1 0.0
23/07:30am 8.7 5.2 7.2 90 0.7 NW 15 20 8 11 1024.7 1024.7 0.0
23/07:00am 7.8 4.9 6.6 92 0.5 NW 11 17 6 9 1024.5 1024.5 0.0
23/06:30am 7.2 5.0 6.1 93 0.5 NW 7 11 4 6 1024.5 1024.5 0.0
23/06:00am 6.8 4.1 5.7 93 0.5 NNW 9 13 5 7 1024.2 1024.2 0.0
23/05:30am 6.4 2.9 5.4 93 0.4 NW 13 17 7 9 1024.1 1024.1 0.0
23/05:00am 6.0 2.8 5.0 93 0.4 NNW 11 17 6 9 1024.0 1024.0 0.0
23/04:30am 6.0 2.8 5.0 93 0.4 NW 11 19 6 10 1024.0 1024.0 0.0
23/04:00am 6.2 2.6 5.2 93 0.4 NW 13 20 7 11 1024.0 1024.0 0.0
23/03:30am 6.3 2.8 5.3 93 0.4 NW 13 17 7 9 1024.2 1024.2 0.0
23/03:00am 6.8 3.4 5.7 93 0.5 NW 13 17 7 9 1024.4 1024.4 0.0
23/02:30am 6.5 3.0 5.5 93 0.4 NW 13 20 7 11 1024.6 1024.6 0.0
23/02:00am 6.8 2.6 5.7 93 0.5 NW 17 22 9 12 1024.6 1024.6 0.0
23/01:30am 6.7 2.9 5.7 93 0.4 NW 15 20 8 11 1024.6 1024.6 0.0
23/01:00am 6.8 3.4 5.7 93 0.5 NW 13 20 7 11 1024.7 1024.7 0.0
23/12:30am 6.4 4.0 5.4 93 0.4 NW 7 17 4 9 1025.1 1025.1 0.0
23/12:00am 6.4 4.0 5.4 93 0.4 N 7 13 4 7 1025.3 1025.3 0.0
 
Date/Time
EST
Temp
°C
App
Temp
°C
Dew
Point
°C
Rel
Hum
%
Delta-T
°C
Wind Press
QNH
hPa
Press
MSL
hPa
Rain since
9am
mm
Dir  Spd
km/h
Gust
km/h
Spd
kts
Gust
kts
22/11:30pm 6.4 4.0 5.4 93 0.4 NNW 7 9 4 5 1025.5 1025.5 0.0
22/11:00pm 6.4 4.0 5.4 93 0.4 NNW 7 11 4 6 1025.7 1025.7 0.0
22/10:30pm 7.0 4.4 5.9 93 0.5 NNW 9 15 5 8 1025.7 1025.7 0.0
22/10:00pm 7.2 4.6 6.0 92 0.5 NNW 9 13 5 7 1025.8 1025.8 0.0
22/09:30pm 7.7 5.2 6.5 92 0.5 NNW 9 11 5 6 1026.0 1026.0 0.0
22/09:00pm 7.9 5.4 6.4 90 0.7 NNW 9 11 5 6 1026.0 1026.0 0.0
22/08:30pm 8.0 5.8 6.0 87 0.9 NNW 7 11 4 6 1026.1 1026.1 0.0
22/08:00pm 8.6 6.0 5.9 83 1.2 NW 9 11 5 6 1026.2 1026.2 0.0
22/07:30pm 8.8 6.5 5.9 82 1.3 NW 7 9 4 5 1026.3 1026.3 0.0
22/07:00pm 9.5 7.2 5.7 77 1.7 NW 7 11 4 6 1026.2 1026.2 0.0
22/06:30pm 9.9 8.1 5.5 74 2.0 NW 4 6 2 3 1026.2 1026.2 0.0
22/06:00pm 10.5 8.7 5.5 71 2.3 NW 4 6 2 3 1026.1 1026.1 0.0
22/05:30pm 11.3 9.5 5.4 67 2.7 WNW 4 6 2 3 1026.0 1026.0 0.0
22/05:00pm 12.4 10.2 5.3 62 3.3 NW 6 9 3 5 1025.8 1025.8 0.0
22/04:30pm 13.6 10.5 5.7 59 3.7 WNW 11 20 6 11 1025.7 1025.7 0.0
22/04:00pm 14.0 10.5 5.4 56 4.0 NW 13 19 7 10 1025.7 1025.7 0.0
22/03:30pm 14.2 10.4 5.6 56 4.1 NW 15 20 8 11 1025.8 1025.8 0.0
22/03:00pm 14.5 10.8 6.1 57 4.0 WNW 15 22 8 12 1025.8 1025.8 0.0
22/02:30pm 14.7 11.7 6.0 56 4.2 NW 11 17 6 9 1025.9 1025.9 0.0
22/02:00pm 14.2 10.2 6.8 61 3.6 WNW 17 22 9 12 1026.1 1026.1 0.0
22/01:30pm 14.0 11.1 8.0 67 3.0 WNW 13 20 7 11 1026.4 1026.4 0.0
22/01:00pm 13.9 10.9 7.9 67 3.0 NW 13 19 7 10 1026.6 1026.6 0.0
22/12:30pm 13.3 10.8 8.4 72 2.4 WNW 11 19 6 10 1027.1 1027.2 0.0
22/12:00pm 12.5 10.5 8.6 77 1.9 NW 9 11 5 6 1027.6 1027.7 0.0
22/11:30am 11.8 9.8 8.8 82 1.5 WNW 9 15 5 8 1028.0 1028.1 0.0
22/11:00am 11.0 9.5 9.1 88 0.9 NNW 7 11 4 6 1028.3 1028.4 0.0
22/10:30am 8.8 6.6 7.7 93 0.5 WNW 9 15 5 8 1028.6 1028.7 0.0
22/10:00am 7.8 4.9 6.7 93 0.5 NW 11 15 6 8 1028.6 1028.7 0.0
22/09:30am 7.1 4.9 6.4 95 0.3 NW 7 11 4 6 1028.7 1028.8 0.0
22/09:00am 6.0 3.6 5.3 95 0.3 WNW 7 13 4 7 1028.5 1028.6 0.2
22/08:30am 4.1 1.4 3.5 96 0.2 NW 7 9 4 5 1028.4 1028.5 0.2
22/08:00am 2.9 0.1 2.2 95 0.3 WNW 6 9 3 5 1028.2 1028.3 0.2
22/07:30am 2.6 0.2 1.9 95 0.3 WNW 4 6 2 3 1028.0 1028.1 0.2
22/07:00am 2.9 0.5 2.2 95 0.3 NW 4 6 2 3 1028.0 1028.1 0.0
22/06:30am 3.4 0.7 2.7 95 0.3 NW 6 7 3 4 1027.9 1028.0 0.0
22/06:00am 3.4 0.7 2.7 95 0.3 NW 6 7 3 4 1027.8 1027.9 0.0
22/05:30am 3.8 1.0 3.1 95 0.3 NW 7 9 4 5 1027.6 1027.7 0.0
22/05:00am 4.0 1.2 3.3 95 0.3 NW 7 9 4 5 1027.6 1027.7 0.0
22/04:30am 4.6 2.1 3.9 95 0.3 WNW 6 7 3 4 1027.5 1027.6 0.0
22/04:00am 5.0 2.6 4.3 95 0.3 WNW 6 9 3 5 1027.6 1027.7 0.0
22/03:30am 5.2 2.7 4.5 95 0.3 NW 7 9 4 5 1027.8 1027.9 0.0
22/03:00am 5.0 2.6 4.3 95 0.3 WNW 6 9 3 5 1028.1 1028.2 0.0
22/02:30am 5.2 2.8 4.5 95 0.3 WNW 6 7 3 4 1028.1 1028.2 0.0
22/02:00am 5.4 2.9 4.7 95 0.3 W 7 9 4 5 1028.0 1028.1 0.0
22/01:30am 5.9 3.7 5.2 95 0.3 WNW 6 9 3 5 1028.0 1028.1 0.0
22/01:00am 6.2 3.9 5.5 95 0.3 NW 7 9 4 5 1028.1 1028.2 0.0
22/12:30am 6.6 4.3 5.9 95 0.3 NW 7 9 4 5 1028.3 1028.4 0.0
22/12:00am 6.9 4.9 6.2 95 0.3 NW 6 9 3 5 1028.6 1028.7 0.0
 
Date/Time
EST
Temp
°C
App
Temp
°C
Dew
Point
°C
Rel
Hum
%
Delta-T
°C
Wind Press
QNH
hPa
Press
MSL
hPa
Rain since
9am
mm
Dir  Spd
km/h
Gust
km/h
Spd
kts
Gust
kts
21/11:30pm 6.8 5.1 6.1 95 0.3 WNW 4 7 2 4 1028.7 1028.8 0.0
21/11:00pm 6.7 4.5 6.0 95 0.3 NW 7 9 4 5 1028.7 1028.8 0.0
21/10:30pm 6.8 4.7 5.9 94 0.4 NW 6 7 3 4 1028.8 1028.9 0.0
21/10:00pm 7.1 5.1 6.2 94 0.4 NW 6 7 3 4 1028.8 1028.9 0.0
21/09:30pm 7.6 6.1 6.7 94 0.4 NNW 4 4 2 2 1028.8 1028.9 0.0
21/09:00pm 7.9 6.1 7.0 94 0.4 NNW 6 6 3 3 1028.7 1028.8 0.0
21/08:30pm 7.3 5.7 6.4 94 0.4 NW 4 6 2 3 1028.5 1028.6 0.0
21/08:00pm 8.4 7.4 7.3 93 0.5 W 2 2 1 1 1028.3 1028.4 0.0
21/07:30pm 8.9 7.6 7.8 93 0.5 WSW 4 4 2 2 1028.4 1028.5 0.0
21/07:00pm 8.7 7.4 7.6 93 0.5 SSW 4 6 2 3 1028.3 1028.4 0.0
21/06:30pm 10.2 10.0 9.0 92 0.6 CALM 0 0 0 0 1028.1 1028.2 0.0
21/06:00pm 10.3 9.0 9.1 92 0.6 S 6 6 3 3 1027.9 1028.0 0.0
21/05:30pm 11.0 9.4 8.1 82 1.4 SSW 6 7 3 4 1027.9 1028.0 0.0
21/05:00pm 12.0 10.1 7.7 75 2.1 WSW 7 11 4 6 1027.7 1027.8 0.0
21/04:30pm 13.4 10.8 7.6 68 2.8 W 11 17 6 9 1027.6 1027.7 0.0
21/04:00pm 13.5 10.5 7.5 67 2.9 WSW 13 19 7 10 1027.4 1027.5 0.0
21/03:30pm 14.4 12.2 7.7 64 3.3 WNW 9 13 5 7 1027.0 1027.0 0.0
21/03:00pm 14.1 11.1 7.6 65 3.2 WNW 13 20 7 11 1026.9 1026.9 0.0
21/02:30pm 14.2 12.0 7.9 66 3.1 WNW 9 15 5 8 1026.9 1026.9 0.0
21/02:00pm 12.9 9.8 7.4 69 2.7 WSW 13 17 7 9 1027.2 1027.3 0.0
21/01:30pm 13.7 10.7 7.7 67 3.0 WNW 13 20 7 11 1027.3 1027.4 0.0
21/01:00pm 13.0 9.5 7.0 67 2.9 WNW 15 22 8 12 1027.6 1027.7 0.0
21/12:30pm 12.8 9.5 6.4 65 3.0 WNW 13 22 7 12 1027.9 1028.0 0.0
21/12:00pm 12.1 8.8 6.6 69 2.6 NW 13 19 7 10 1028.2 1028.3 0.0
21/11:30am 10.7 7.8 6.6 76 1.9 NW 11 17 6 9 1028.5 1028.6 0.0
21/11:00am 9.7 6.9 6.8 82 1.3 NW 11 15 6 8 1028.9 1029.0 0.0
21/10:30am 8.7 6.1 6.0 83 1.2 WNW 9 13 5 7 1029.1 1029.2 0.0
21/10:00am 8.1 5.1 6.2 88 0.9 NW 11 15 6 8 1029.0 1029.1 0.0

Other Formats:

Comma delimited format used in spreadsheet applications
http://www.bom.gov.au/fwo/IDV60801/IDV60801.94857.axf

JavaScript Object Notation format (JSON) in row-major order
http://www.bom.gov.au/fwo/IDV60801/IDV60801.94857.json